createdAt,value
2017-11-18T00:00:24.028Z,99342.36
2017-11-18T00:02:50.454Z,99338.86
2017-11-18T00:05:17.612Z,99345.42
2017-11-18T00:07:43.943Z,99341.33
2017-11-18T00:10:10.373Z,99341.22
2017-11-18T00:12:36.808Z,99331.73
2017-11-18T00:15:03.139Z,99327.84
2017-11-18T00:17:29.573Z,99330.39
2017-11-18T00:19:56.009Z,99327.03
2017-11-18T00:22:23.095Z,99325.53
2017-11-18T00:24:49.465Z,99317.51
2017-11-18T00:27:15.906Z,99325.10
2017-11-18T00:29:42.349Z,99320.29
2017-11-18T00:32:08.807Z,99313.38
2017-11-18T00:34:35.180Z,99320.00
2017-11-18T00:37:01.680Z,99312.49
2017-11-18T00:39:28.847Z,99312.63
2017-11-18T00:41:55.186Z,99309.06
2017-11-18T00:44:21.695Z,99297.31
2017-11-18T00:46:48.123Z,99288.31
2017-11-18T00:49:14.528Z,99287.03
2017-11-18T00:51:40.990Z,99277.95
2017-11-18T00:54:07.428Z,99285.39
2017-11-18T00:56:34.688Z,99280.20
2017-11-18T00:59:01.125Z,99281.55
2017-11-18T01:01:27.679Z,99278.35
2017-11-18T01:03:54.086Z,99279.34
2017-11-18T01:06:20.542Z,99283.73
2017-11-18T01:08:46.963Z,99276.42
2017-11-18T01:11:13.398Z,99281.01
2017-11-18T01:13:40.477Z,99266.38
2017-11-18T01:16:06.874Z,99270.37
2017-11-18T01:18:33.309Z,99268.51
2017-11-18T01:20:59.743Z,99263.09
2017-11-18T01:23:26.178Z,99240.84
2017-11-18T01:25:52.612Z,99255.18
2017-11-18T01:28:19.049Z,99260.80
2017-11-18T01:30:46.208Z,99258.25
2017-11-18T01:33:12.642Z,99254.76
2017-11-18T01:35:39.077Z,99251.50
2017-11-18T01:38:05.502Z,99251.38
2017-11-18T01:40:31.936Z,99249.86
2017-11-18T01:42:58.493Z,99250.44
2017-11-18T01:45:24.832Z,99247.86
2017-11-18T01:47:52.058Z,99244.48
2017-11-18T01:50:18.394Z,99251.22
2017-11-18T01:52:44.854Z,99248.34
2017-11-18T01:55:11.261Z,99247.28
2017-11-18T01:57:37.724Z,99253.23
2017-11-18T02:00:04.140Z,99249.52
2017-11-18T02:02:30.577Z,99244.97
2017-11-18T02:04:57.720Z,99254.20
2017-11-18T02:07:24.154Z,99231.71
2017-11-18T02:09:50.551Z,99252.59
2017-11-18T02:12:17.024Z,99252.09
2017-11-18T02:14:43.459Z,99253.75
2017-11-18T02:17:09.896Z,99251.34
2017-11-18T02:19:36.264Z,99252.98
2017-11-18T02:22:03.582Z,99242.37
2017-11-18T02:24:29.913Z,99238.98
2017-11-18T02:26:56.347Z,99231.85
2017-11-18T02:29:22.781Z,99232.55
2017-11-18T02:31:49.225Z,99223.98
2017-11-18T02:34:15.654Z,99229.46
2017-11-18T02:36:42.105Z,99225.44
2017-11-18T02:39:09.342Z,99228.94
2017-11-18T02:41:35.803Z,99229.60
2017-11-18T02:44:02.219Z,99226.38
2017-11-18T02:46:28.663Z,99226.61
2017-11-18T02:48:55.190Z,99232.14
2017-11-18T02:51:21.617Z,99235.77
2017-11-18T02:53:47.988Z,99239.78
2017-11-18T02:56:15.230Z,99233.63
2017-11-18T02:58:41.746Z,99236.58
2017-11-18T03:01:08.201Z,99230.53
2017-11-18T03:03:34.720Z,99227.84
2017-11-18T03:06:01.145Z,99229.75
2017-11-18T03:08:27.579Z,99225.27
2017-11-18T03:10:54.015Z,99226.09
2017-11-18T03:13:21.174Z,99225.02
2017-11-18T03:15:47.610Z,99227.43
2017-11-18T03:18:14.044Z,99225.32
2017-11-18T03:20:40.479Z,99228.41
2017-11-18T03:23:06.907Z,99225.86
2017-11-18T03:25:33.345Z,99227.21
2017-11-18T03:27:59.679Z,99221.61
2017-11-18T03:30:26.926Z,99222.03
2017-11-18T03:32:53.330Z,99219.98
2017-11-18T03:35:19.804Z,99224.41
2017-11-18T03:37:46.229Z,99212.89
2017-11-18T03:40:12.664Z,99220.91
2017-11-18T03:42:39.097Z,99215.30
2017-11-18T03:45:05.542Z,99216.45
2017-11-18T03:47:32.685Z,99217.42
2017-11-18T03:49:59.118Z,99216.18
2017-11-18T03:52:25.553Z,99218.45
2017-11-18T03:54:51.996Z,99212.94
2017-11-18T03:57:18.367Z,99215.45
2017-11-18T03:59:44.866Z,99215.13
2017-11-18T04:02:11.292Z,99218.41
2017-11-18T04:04:38.480Z,99221.56
2017-11-18T04:07:04.816Z,99217.53
2017-11-18T04:09:31.174Z,99223.73
2017-11-18T04:11:57.655Z,99216.83
2017-11-18T04:14:24.089Z,99213.84
2017-11-18T04:16:50.492Z,99216.39
2017-11-18T04:19:16.958Z,99211.61
2017-11-18T04:21:44.100Z,99201.52
2017-11-18T04:24:10.505Z,99215.05
2017-11-18T04:26:36.868Z,99209.30
2017-11-18T04:29:03.304Z,99211.39
2017-11-18T04:31:29.739Z,99213.55
2017-11-18T04:33:56.180Z,99208.37
2017-11-18T04:36:22.727Z,99212.74
2017-11-18T04:38:49.826Z,99213.19
2017-11-18T04:41:16.268Z,99205.16
2017-11-18T04:43:42.739Z,99208.25
2017-11-18T04:46:09.210Z,99212.17
2017-11-18T04:48:35.601Z,99212.59
2017-11-18T04:51:02.033Z,99202.70
2017-11-18T04:53:28.478Z,99206.22
2017-11-18T04:55:55.620Z,99204.89
2017-11-18T04:58:22.044Z,99206.47
2017-11-18T05:00:48.491Z,99207.01
2017-11-18T05:03:14.897Z,99208.48
2017-11-18T05:05:41.389Z,99209.08
2017-11-18T05:08:07.896Z,99210.06
2017-11-18T05:10:34.339Z,99208.25
2017-11-18T05:13:01.593Z,99207.43
2017-11-18T05:15:28.020Z,99207.41
2017-11-18T05:17:54.454Z,99214.22
2017-11-18T05:20:20.888Z,99213.39
2017-11-18T05:22:47.354Z,99211.14
2017-11-18T05:25:13.870Z,99217.69
2017-11-18T05:27:40.295Z,99212.84
2017-11-18T05:30:07.465Z,99215.78
2017-11-18T05:32:33.890Z,99213.89
2017-11-18T05:35:00.316Z,99216.84
2017-11-18T05:37:26.758Z,99215.66
2017-11-18T05:39:53.185Z,99218.86
2017-11-18T05:42:19.620Z,99222.76
2017-11-18T05:44:46.063Z,99217.81
2017-11-18T05:47:13.283Z,99220.91
2017-11-18T05:49:39.732Z,99208.87
2017-11-18T05:52:06.187Z,99217.45
2017-11-18T05:54:32.612Z,99219.89
2017-11-18T05:56:59.047Z,99216.43
2017-11-18T05:59:25.482Z,99210.97
2017-11-18T06:01:51.936Z,99215.94
2017-11-18T06:04:19.069Z,99214.63
2017-11-18T06:06:45.519Z,99213.98
2017-11-18T06:09:11.946Z,99209.80
2017-11-18T06:11:38.394Z,99215.55
2017-11-18T06:14:04.772Z,99214.50
2017-11-18T06:16:31.250Z,99212.09
2017-11-18T06:18:57.676Z,99214.10
2017-11-18T06:21:24.863Z,99218.04
2017-11-18T06:23:51.263Z,99225.80
2017-11-18T06:26:17.697Z,99222.76
2017-11-18T06:28:44.135Z,99225.00
2017-11-18T06:31:10.576Z,99217.36
2017-11-18T06:51:16.877Z,99212.64
2017-11-18T06:53:43.303Z,99216.30
2017-11-18T06:56:09.739Z,99222.72
2017-11-18T06:58:36.167Z,99224.20
2017-11-18T07:01:02.603Z,99220.47
2017-11-18T07:03:29.036Z,99225.31
2017-11-18T07:05:55.787Z,99224.09
2017-11-18T07:08:22.145Z,99225.45
2017-11-18T07:10:48.552Z,99225.36
2017-11-18T07:13:14.977Z,99220.75
2017-11-18T07:15:41.448Z,99231.80
2017-11-18T07:18:07.792Z,99225.80
2017-11-18T07:20:34.187Z,99225.27
2017-11-18T07:23:00.626Z,99225.73
2017-11-18T07:25:27.057Z,99227.38
2017-11-18T07:27:53.484Z,99221.63
2017-11-18T07:30:19.956Z,99214.69
2017-11-18T07:32:46.478Z,99226.59
2017-11-18T07:35:13.000Z,99219.52
2017-11-18T07:37:39.939Z,99213.25
2017-11-18T07:40:06.382Z,99213.09
2017-11-18T07:42:32.809Z,99205.06
2017-11-18T07:44:59.242Z,99193.00
2017-11-18T07:47:25.679Z,99200.14
2017-11-18T07:49:52.133Z,99202.16
2017-11-18T07:52:18.479Z,99202.01
2017-11-18T07:54:44.849Z,99206.84
2017-11-18T07:57:11.210Z,99198.54
2017-11-18T07:59:37.646Z,99199.61
2017-11-18T08:02:04.081Z,99206.45
2017-11-18T08:04:30.518Z,99208.98
2017-11-18T08:06:57.462Z,99206.72
2017-11-18T08:09:23.897Z,99207.13
2017-11-18T08:11:50.441Z,99204.86
2017-11-18T08:14:17.380Z,99214.37
2017-11-18T08:16:43.926Z,99215.69
2017-11-18T08:19:10.457Z,99214.89
2017-11-18T08:21:37.106Z,99210.04
2017-11-18T08:24:03.639Z,99208.69
2017-11-18T08:26:30.544Z,99212.20
2017-11-18T08:28:57.636Z,99207.63
2017-11-18T08:31:24.235Z,99206.02
2017-11-18T08:33:50.862Z,99180.80
2017-11-18T08:36:18.095Z,99202.41
2017-11-18T08:38:44.812Z,99211.08
2017-11-18T08:41:11.904Z,99202.78
2017-11-18T08:43:38.629Z,99208.39
2017-11-18T08:46:05.484Z,99207.99
2017-11-18T08:48:31.980Z,99211.50
2017-11-18T08:50:58.816Z,99210.02
2017-11-18T08:53:25.251Z,99206.38
2017-11-18T08:55:51.685Z,99220.34
2017-11-18T08:58:18.602Z,99210.16
2017-11-18T09:00:45.067Z,99201.98
2017-11-18T09:03:11.540Z,99205.98
2017-11-18T09:05:38.141Z,99199.02
2017-11-18T09:08:04.520Z,99170.73
2017-11-18T09:10:30.966Z,99186.93
2017-11-18T09:12:57.967Z,99160.93
2017-11-18T09:15:24.532Z,99186.28
2017-11-18T09:17:51.110Z,99183.48
2017-11-18T09:20:17.670Z,99183.22
2017-11-18T09:22:44.208Z,99184.03
2017-11-18T09:25:10.753Z,99175.20
2017-11-18T09:27:37.180Z,99171.16
2017-11-18T09:30:03.621Z,99183.11
2017-11-18T09:32:30.048Z,99171.84
2017-11-18T09:34:56.484Z,99170.23
2017-11-18T09:37:22.919Z,99173.45
2017-11-18T09:39:50.173Z,99171.59
2017-11-18T09:42:16.609Z,99163.81
2017-11-18T09:44:43.248Z,99159.93
2017-11-18T09:47:09.894Z,99158.34
2017-11-18T09:49:36.529Z,99157.67
2017-11-18T09:52:02.902Z,99154.33
2017-11-18T09:54:29.367Z,99157.94
2017-11-18T09:56:55.936Z,99151.23
2017-11-18T09:59:22.477Z,99147.34
2017-11-18T10:01:48.912Z,99153.24
2017-11-18T10:04:15.547Z,99146.95
2017-11-18T10:06:41.977Z,99143.59
2017-11-18T10:09:08.411Z,99131.52
2017-11-18T10:11:35.154Z,99135.80
2017-11-18T10:14:01.597Z,99116.93
2017-11-18T10:16:28.029Z,99133.40
2017-11-18T10:18:54.765Z,99135.02
2017-11-18T10:21:21.209Z,99138.75
2017-11-18T10:23:47.742Z,99134.34
2017-11-18T10:26:14.686Z,99126.42
2017-11-18T10:28:41.120Z,99130.86
2017-11-18T10:31:07.553Z,99129.66
2017-11-18T10:33:34.766Z,99128.44
2017-11-18T10:36:01.244Z,99122.80
2017-11-18T10:38:27.699Z,99123.48
2017-11-18T10:40:54.055Z,99107.54
2017-11-18T10:43:20.515Z,99110.10
2017-11-18T10:45:46.991Z,99107.54
2017-11-18T10:48:13.937Z,99110.77
2017-11-18T10:50:40.361Z,99111.28
2017-11-18T10:53:06.907Z,99095.51
2017-11-18T10:55:33.653Z,99079.95
2017-11-18T10:58:00.186Z,99098.58
2017-11-18T11:00:26.612Z,99098.98
2017-11-18T11:02:53.481Z,99096.58
2017-11-18T11:05:20.003Z,99091.07
2017-11-18T11:07:46.434Z,99086.78
2017-11-18T11:10:13.170Z,99085.59
2017-11-18T11:12:39.607Z,99082.88
2017-11-18T11:15:06.032Z,99088.13
2017-11-18T11:17:32.893Z,99084.21
2017-11-18T11:19:59.429Z,99087.19
2017-11-18T11:22:25.966Z,99079.56
2017-11-18T11:24:53.234Z,99078.22
2017-11-18T11:27:19.715Z,99081.95
2017-11-18T11:29:46.162Z,99083.70
2017-11-18T11:32:13.036Z,99077.66
2017-11-18T11:34:39.463Z,99087.31
2017-11-18T11:37:05.904Z,99081.53
2017-11-18T11:39:32.546Z,99080.75
2017-11-18T11:41:59.084Z,99081.94
2017-11-18T11:44:25.620Z,99079.41
2017-11-18T11:46:52.051Z,99077.80
2017-11-18T11:49:18.684Z,99074.84
2017-11-18T11:51:45.122Z,99069.10
2017-11-18T11:54:11.556Z,99069.22
2017-11-18T11:56:38.102Z,99067.91
2017-11-18T11:59:04.530Z,99066.02
2017-11-18T12:01:30.961Z,99068.44
2017-11-18T12:03:57.918Z,99065.09
2017-11-18T12:06:24.420Z,99062.00
2017-11-18T12:08:50.866Z,99068.58
2017-11-18T12:11:17.520Z,99063.22
2017-11-18T12:13:43.976Z,99051.69
2017-11-18T12:16:11.347Z,99061.47
2017-11-18T12:18:37.828Z,99050.34
2017-11-18T12:21:04.392Z,99049.52
2017-11-18T12:23:30.921Z,99059.42
2017-11-18T12:25:57.355Z,99056.21
2017-11-18T12:28:23.790Z,99048.31
2017-11-18T12:30:50.439Z,99036.92
2017-11-18T12:33:16.872Z,99037.87
2017-11-18T12:35:43.300Z,99047.09
2017-11-18T12:38:09.743Z,99061.73
2017-11-18T12:40:36.515Z,99059.31
2017-11-18T12:43:02.849Z,99055.30
2017-11-18T12:45:29.168Z,99061.59
2017-11-18T12:47:55.677Z,99056.11
2017-11-18T12:50:22.111Z,99032.42
2017-11-18T12:52:48.475Z,99058.13
2017-11-18T12:55:14.879Z,99052.10
2017-11-18T12:57:41.313Z,99052.62
2017-11-18T13:00:07.685Z,99046.22
2017-11-18T13:02:34.080Z,99035.09
2017-11-18T13:05:00.618Z,99024.08
2017-11-18T13:07:27.053Z,99029.48
2017-11-18T13:09:53.385Z,99038.97
2017-11-18T13:12:19.922Z,99043.39
2017-11-18T13:14:46.371Z,99049.02
2017-11-18T13:17:12.778Z,99051.84
2017-11-18T13:19:39.225Z,99056.27
2017-11-18T13:22:05.714Z,99059.58
2017-11-18T13:24:32.164Z,99052.25
2017-11-18T13:26:58.622Z,99049.02
2017-11-18T13:29:25.101Z,99043.80
2017-11-18T13:31:51.501Z,99040.30
2017-11-18T13:34:17.876Z,99032.41
2017-11-18T13:36:44.268Z,99032.56
2017-11-18T13:39:10.704Z,99030.92
2017-11-18T13:41:37.145Z,99031.73
2017-11-18T13:44:03.581Z,99032.81
2017-11-18T13:46:30.015Z,99023.70
2017-11-18T13:48:56.449Z,99027.73
2017-11-18T13:51:22.885Z,99031.63
2017-11-18T13:53:50.035Z,99030.39
2017-11-18T13:56:16.463Z,99011.80
2017-11-18T13:58:42.999Z,99027.87
2017-11-18T14:01:09.434Z,99041.52
2017-11-18T14:03:35.869Z,99032.94
2017-11-18T14:06:02.312Z,99043.95
2017-11-18T14:08:28.886Z,99041.37
2017-11-18T14:10:55.973Z,99037.62
2017-11-18T14:13:22.326Z,99029.06
2017-11-18T14:15:48.768Z,99032.41
2017-11-18T14:18:15.202Z,99034.30
2017-11-18T14:20:41.567Z,99037.50
2017-11-18T14:23:07.961Z,99028.53
2017-11-18T14:25:34.406Z,99033.47
2017-11-18T14:28:01.620Z,99035.34
2017-11-18T14:30:28.092Z,99034.67
2017-11-18T14:32:54.493Z,99038.42
2017-11-18T14:35:20.954Z,99039.66
2017-11-18T14:37:47.319Z,99039.92
2017-11-18T14:40:13.651Z,99043.27
2017-11-18T14:42:40.052Z,99039.92
2017-11-18T14:45:07.204Z,99034.42
2017-11-18T14:47:33.731Z,99031.89
2017-11-18T14:50:00.175Z,99034.02
2017-11-18T14:52:26.628Z,99029.47
2017-11-18T14:54:52.980Z,99028.66
2017-11-18T14:57:19.377Z,99028.40
2017-11-18T14:59:45.821Z,99027.73
2017-11-18T15:02:12.986Z,99027.58
2017-11-18T15:04:39.376Z,99030.52
2017-11-18T15:07:05.794Z,99036.70
2017-11-18T15:09:32.270Z,99031.08
2017-11-18T15:11:58.704Z,99035.50
2017-11-18T15:14:25.136Z,99012.47
2017-11-18T15:16:51.469Z,99031.75
2017-11-18T15:19:18.837Z,99034.42
2017-11-18T15:21:45.268Z,99042.05
2017-11-18T15:24:11.658Z,99049.69
2017-11-18T15:26:38.148Z,99043.54
2017-11-18T15:29:04.532Z,99039.93
2017-11-18T15:31:31.003Z,99041.53
2017-11-18T15:33:57.374Z,99040.45
2017-11-18T15:36:24.687Z,99040.30
2017-11-18T15:38:51.131Z,99040.59
2017-11-18T15:41:17.577Z,99039.52
2017-11-18T15:43:43.993Z,99045.55
2017-11-18T15:46:10.361Z,99041.94
2017-11-18T15:48:36.758Z,99044.61
2017-11-18T15:51:03.134Z,99040.05
2017-11-18T15:53:30.276Z,99038.84
2017-11-18T15:55:56.787Z,99038.97
2017-11-18T15:58:23.215Z,99036.95
2017-11-18T16:00:49.657Z,99028.13
2017-11-18T16:03:16.083Z,99033.08
2017-11-18T16:05:42.528Z,99028.66
2017-11-18T16:08:08.912Z,99029.33
2017-11-18T16:10:36.207Z,99023.70
2017-11-18T16:13:02.649Z,99019.02
2017-11-18T16:15:29.008Z,99021.03
2017-11-18T16:17:55.409Z,99023.04
2017-11-18T16:20:21.849Z,99019.69
2017-11-18T16:22:48.276Z,99028.80
2017-11-18T16:25:14.712Z,99010.73
2017-11-18T16:27:41.965Z,99034.57
2017-11-18T16:30:08.400Z,99032.56
2017-11-18T16:32:34.839Z,99026.80
2017-11-18T16:35:01.163Z,99023.56
2017-11-18T16:37:27.604Z,99022.52
2017-11-18T16:39:54.042Z,99015.67
2017-11-18T16:42:20.480Z,99012.84
2017-11-18T16:44:47.621Z,99017.95
2017-11-18T16:47:14.058Z,99023.45
2017-11-18T16:49:40.503Z,99016.61
2017-11-18T16:52:06.936Z,99016.48
2017-11-18T16:54:33.262Z,99014.86
2017-11-18T16:56:59.633Z,99019.70
2017-11-18T16:59:25.992Z,99017.16
2017-11-18T17:01:53.308Z,99017.83
2017-11-18T17:04:19.669Z,99022.23
2017-11-18T17:06:46.013Z,99025.31
2017-11-18T17:09:12.496Z,99021.44
2017-11-18T17:11:38.926Z,99019.55
2017-11-18T17:14:05.352Z,99023.30
2017-11-18T17:16:31.798Z,99025.45
2017-11-18T17:18:58.834Z,99016.20
2017-11-18T17:21:25.269Z,99022.63
2017-11-18T17:23:51.706Z,99015.67
2017-11-18T17:26:18.141Z,99014.08
2017-11-18T17:28:44.539Z,99015.16
2017-11-18T17:31:10.860Z,99017.83
2017-11-18T17:33:37.197Z,99019.69
2017-11-18T17:36:04.493Z,99019.55
2017-11-18T17:38:30.935Z,98991.56
2017-11-18T17:40:57.362Z,99021.18
2017-11-18T17:43:23.919Z,99017.16
2017-11-18T17:45:50.315Z,99012.20
2017-11-18T17:48:16.764Z,99016.89
2017-11-18T17:50:43.201Z,99013.00
2017-11-18T17:53:10.318Z,99013.66
2017-11-18T17:55:36.757Z,99010.20
2017-11-18T17:58:03.155Z,99021.17
2017-11-18T18:00:29.555Z,99022.11
2017-11-18T18:02:56.009Z,99016.87
2017-11-18T18:05:22.424Z,99013.14
2017-11-18T18:07:48.869Z,99013.93
2017-11-18T18:10:16.010Z,99009.13
2017-11-18T18:12:42.454Z,99007.23
2017-11-18T18:15:08.880Z,99000.53
2017-11-18T18:17:35.212Z,99000.53
2017-11-18T18:20:01.585Z,98996.67
2017-11-18T18:22:28.053Z,98987.41
2017-11-18T18:24:54.489Z,98967.88
2017-11-18T18:27:21.606Z,98985.69
2017-11-18T18:29:47.999Z,98978.59
2017-11-18T18:32:14.368Z,98991.98
2017-11-18T18:34:40.766Z,98986.88
2017-11-18T18:37:07.201Z,98985.69
2017-11-18T18:39:33.636Z,98982.34
2017-11-18T18:41:59.968Z,98981.52
2017-11-18T18:44:27.202Z,98977.36
2017-11-18T18:46:53.623Z,98981.38
2017-11-18T18:49:20.100Z,98983.02
2017-11-18T18:51:46.527Z,98979.92
2017-11-18T18:54:12.961Z,98946.72
2017-11-18T18:56:39.410Z,98978.33
2017-11-18T18:59:05.942Z,98981.00
2017-11-18T19:01:33.003Z,98978.70
2017-11-18T19:03:59.342Z,98979.52
2017-11-18T19:06:25.851Z,98975.50
2017-11-18T19:08:52.310Z,98976.28
2017-11-18T19:11:18.726Z,98971.22
2017-11-18T19:13:45.155Z,98968.80
2017-11-18T19:16:11.701Z,98973.34
2017-11-18T19:18:38.741Z,98968.24
2017-11-18T19:21:05.176Z,98974.83
2017-11-18T19:23:31.610Z,98970.81
2017-11-18T19:25:58.045Z,98963.44
2017-11-18T19:28:24.481Z,98963.84
2017-11-18T19:30:50.914Z,98963.45
2017-11-18T19:33:17.288Z,98959.69
2017-11-18T19:35:44.511Z,98942.70
2017-11-18T19:38:10.940Z,98956.76
2017-11-18T19:40:37.306Z,98955.67
2017-11-18T19:43:03.702Z,98956.08
2017-11-18T19:45:30.146Z,98952.59
2017-11-18T19:47:56.541Z,98948.44
2017-11-18T19:50:22.991Z,98950.97
2017-11-18T19:52:50.157Z,98949.79
2017-11-18T19:55:16.535Z,98948.45
2017-11-18T19:57:42.890Z,98946.30
2017-11-18T20:00:09.336Z,98931.57
2017-11-18T20:02:35.794Z,98948.56
2017-11-18T20:05:02.249Z,98941.34
2017-11-18T20:07:28.664Z,98948.70
2017-11-18T20:09:55.917Z,98948.55
2017-11-18T20:12:22.327Z,98946.01
2017-11-18T20:14:48.790Z,98942.11
2017-11-18T20:17:15.233Z,98937.32
2017-11-18T20:19:41.656Z,98937.98
2017-11-18T20:22:08.100Z,98935.42
2017-11-18T20:24:34.636Z,98940.12
2017-11-18T20:27:01.685Z,98940.66
2017-11-18T20:29:28.126Z,98943.19
2017-11-18T20:31:54.545Z,98939.83
2017-11-18T20:34:20.988Z,98940.91
2017-11-18T20:36:47.446Z,98940.50
2017-11-18T20:39:13.972Z,98938.39
2017-11-18T20:41:40.388Z,98944.94
2017-11-18T20:44:07.621Z,98949.21
2017-11-18T20:46:34.063Z,98946.80
2017-11-18T20:49:00.515Z,98937.16
2017-11-18T20:51:26.945Z,98939.30
2017-11-18T20:53:53.379Z,98933.27
2017-11-18T20:56:19.938Z,98933.95
2017-11-18T20:58:46.283Z,98933.03
2017-11-18T21:01:13.452Z,98928.87
2017-11-18T21:03:39.911Z,98931.28
2017-11-18T21:06:06.393Z,98926.59
2017-11-18T21:08:32.809Z,98927.69
2017-11-18T21:10:59.240Z,98927.95
2017-11-18T21:13:25.681Z,98927.53
2017-11-18T21:15:52.010Z,98930.73
2017-11-18T21:18:19.271Z,98930.98
2017-11-18T21:20:45.716Z,98926.84
2017-11-18T21:23:12.130Z,98930.97
2017-11-18T21:25:38.643Z,98931.78
2017-11-18T21:28:05.112Z,98929.51
2017-11-18T21:30:31.649Z,98934.05
2017-11-18T21:32:58.074Z,98929.77
2017-11-18T21:35:25.227Z,98921.33
2017-11-18T21:37:51.557Z,98921.59
2017-11-18T21:40:17.891Z,98921.49
2017-11-18T21:42:44.335Z,98930.30
2017-11-18T21:45:10.759Z,98927.77
2017-11-18T21:47:37.224Z,98924.16
2017-11-18T21:50:03.635Z,98928.29
2017-11-18T21:52:30.792Z,98924.28
2017-11-18T21:54:57.225Z,98922.16
2017-11-18T21:57:23.676Z,98925.92
2017-11-18T21:59:50.057Z,98925.25
2017-11-18T22:02:16.492Z,98927.25
2017-11-18T22:04:42.957Z,98922.00
2017-11-18T22:07:09.391Z,98922.00
2017-11-18T22:09:36.645Z,98920.80
2017-11-18T22:12:03.019Z,98919.20
2017-11-18T22:14:29.411Z,98926.16
2017-11-18T22:16:55.956Z,98921.74
2017-11-18T22:19:22.395Z,98931.26
2017-11-18T22:21:48.816Z,98920.92
2017-11-18T22:24:15.135Z,98924.83
2017-11-18T22:26:42.401Z,98921.75
2017-11-18T22:29:08.836Z,98923.23
2017-11-18T22:31:35.280Z,98922.83
2017-11-18T22:34:01.716Z,98918.14
2017-11-18T22:36:28.149Z,98920.67
2017-11-18T22:38:54.677Z,98915.98
2017-11-18T22:41:21.112Z,98915.06
2017-11-18T22:43:48.265Z,98913.03
2017-11-18T22:46:14.699Z,98905.94
2017-11-18T22:48:41.143Z,98910.36
2017-11-18T22:51:07.678Z,98912.12
2017-11-18T22:53:34.108Z,98912.53
2017-11-18T22:56:00.508Z,98898.89
2017-11-18T22:58:26.873Z,98905.44
2017-11-18T23:00:54.111Z,98903.42
2017-11-18T23:03:20.528Z,98892.73
2017-11-18T23:05:47.003Z,98892.99
2017-11-18T23:08:13.386Z,98898.22
2017-11-18T23:10:39.798Z,98892.98
2017-11-18T23:13:06.300Z,98869.57
2017-11-18T23:15:32.742Z,98884.69
2017-11-18T23:17:59.988Z,98882.41
2017-11-18T23:20:26.428Z,98881.34
2017-11-18T23:22:52.968Z,98877.21
2017-11-18T23:25:19.393Z,98882.83
2017-11-18T23:27:45.940Z,98871.97
2017-11-18T23:30:12.374Z,98880.42
2017-11-18T23:32:38.911Z,98883.09
2017-11-18T23:35:06.063Z,98876.92
2017-11-18T23:37:32.528Z,98863.97
2017-11-18T23:39:58.862Z,98877.74
2017-11-18T23:42:25.256Z,98873.47
2017-11-18T23:44:51.690Z,98873.58
2017-11-18T23:47:18.125Z,98871.72
2017-11-18T23:49:44.513Z,98874.66
2017-11-18T23:52:11.719Z,98875.05
2017-11-18T23:54:38.146Z,98874.64
2017-11-18T23:57:04.479Z,98878.66
2017-11-18T23:59:30.848Z,98875.20
